Wilson Clyde — 8PRV — position and weather

sailwx.info

Track history (hours):
 
Tides and Currents Weather Stations Pressure Air Temp Water Temp Dewpoint Dewpoint Depression Visibility Wind Speed Wind Dir Waves Ship Positions

Wilson Clyde

Last reported at 2015-Feb-13 12:24 UTC. Time now 2015-Feb-26 23:25 UTC.
Position N 36°41' E 014°30'.
Warning: this ship's position is 13 days out of date.

Length 100 m; draft 5.7 m.

Type: Ship. MMSI: 314187000.

Date/timePositionNaut miles runAvg speedWind from/ knotsBaromVisibWave heightAir tempDewpointWater temp
2015-Feb-13 12:24N 36°41' E 014°30'910.3
2015-Feb-13 11:33N 36°43' E 014°20'1010.2
2015-Feb-13 10:33N 36°46' E 014°08'1010.1
2015-Feb-13 09:33N 36°48' E 013°55'1010.1
2015-Feb-13 08:33N 36°50' E 013°43'  
2015-Feb-09 06:16N 35°59' W 005°11'810.7
2015-Feb-09 05:33N 35°58' W 005°20'  
2015-Feb-03 21:33N 50°36' E 000°21'9 9.2
2015-Feb-03 20:32N 50°39' E 000°35'1010.5
2015-Feb-03 19:33N 50°45' E 000°48'1512.2
2015-Feb-03 18:18N 50°54' E 001°08'1013.2
2015-Feb-03 17:33N 51°00' E 001°20'1212.5
2015-Feb-03 16:33N 51°08' E 001°35'1110.6
2015-Feb-03 15:33N 51°15' E 001°48'10 9.6
2015-Feb-03 14:33N 51°23' E 001°56'8 8.6
2015-Feb-03 13:34N 51°30' E 002°05'9 9.1
2015-Feb-03 12:33N 51°37' E 002°15'  
Track history (hours):
 
Tides and Currents Weather Stations Pressure Air Temp Water Temp Dewpoint Dewpoint Depression Visibility Wind Speed Wind Dir Waves Ship Positions

Wilson Clyde

Last reported at 2015-Feb-13 12:24 UTC. Time now 2015-Feb-26 23:25 UTC.
Position N 36°41' E 014°30'.
Warning: this ship's position is 13 days out of date.

Length 100 m; draft 5.7 m.

Type: Ship. MMSI: 314187000.

Date/timePositionNaut miles runAvg speedWind from/ knotsBaromVisibWave heightAir tempDewpointWater temp
2015-Feb-13 12:24N 36°41' E 014°30'910.3
2015-Feb-13 11:33N 36°43' E 014°20'1010.2
2015-Feb-13 10:33N 36°46' E 014°08'1010.1
2015-Feb-13 09:33N 36°48' E 013°55'1010.1
2015-Feb-13 08:33N 36°50' E 013°43'  
2015-Feb-09 06:16N 35°59' W 005°11'810.7
2015-Feb-09 05:33N 35°58' W 005°20'  
2015-Feb-03 21:33N 50°36' E 000°21'9 9.2
2015-Feb-03 20:32N 50°39' E 000°35'1010.5
2015-Feb-03 19:33N 50°45' E 000°48'1512.2
2015-Feb-03 18:18N 50°54' E 001°08'1013.2
2015-Feb-03 17:33N 51°00' E 001°20'1212.5
2015-Feb-03 16:33N 51°08' E 001°35'1110.6
2015-Feb-03 15:33N 51°15' E 001°48'10 9.6
2015-Feb-03 14:33N 51°23' E 001°56'8 8.6
2015-Feb-03 13:34N 51°30' E 002°05'9 9.1
2015-Feb-03 12:33N 51°37' E 002°15'  

Dump ship's entire track history